sensor_id;sensor_type;location;lat;lon;timestamp;temperature;humidity
4578;DHT22;2301;47.354;8.528;2022-12-26T00:01:38;12.90;96.20
4578;DHT22;2301;47.354;8.528;2022-12-26T00:04:06;12.90;96.50
4578;DHT22;2301;47.354;8.528;2022-12-26T00:06:33;12.90;96.40
4578;DHT22;2301;47.354;8.528;2022-12-26T00:09:02;12.90;96.40
4578;DHT22;2301;47.354;8.528;2022-12-26T00:11:31;12.80;96.40
4578;DHT22;2301;47.354;8.528;2022-12-26T00:14:00;12.70;96.00
4578;DHT22;2301;47.354;8.528;2022-12-26T00:16:27;12.60;95.90
4578;DHT22;2301;47.354;8.528;2022-12-26T00:18:55;12.60;96.60
4578;DHT22;2301;47.354;8.528;2022-12-26T00:21:22;12.70;96.60
4578;DHT22;2301;47.354;8.528;2022-12-26T00:23:51;12.70;95.90
4578;DHT22;2301;47.354;8.528;2022-12-26T00:26:20;12.70;95.80
4578;DHT22;2301;47.354;8.528;2022-12-26T00:28:49;12.60;95.70
4578;DHT22;2301;47.354;8.528;2022-12-26T00:31:18;12.60;95.20
4578;DHT22;2301;47.354;8.528;2022-12-26T00:33:46;12.30;94.70
4578;DHT22;2301;47.354;8.528;2022-12-26T00:36:15;12.20;94.30
4578;DHT22;2301;47.354;8.528;2022-12-26T00:38:43;12.10;94.60
4578;DHT22;2301;47.354;8.528;2022-12-26T00:41:11;12.10;95.40
4578;DHT22;2301;47.354;8.528;2022-12-26T00:43:38;12.10;95.20
4578;DHT22;2301;47.354;8.528;2022-12-26T00:46:07;12.10;95.60
4578;DHT22;2301;47.354;8.528;2022-12-26T00:48:35;12.30;96.60
4578;DHT22;2301;47.354;8.528;2022-12-26T00:51:02;12.30;96.40
4578;DHT22;2301;47.354;8.528;2022-12-26T00:53:29;12.50;96.60
4578;DHT22;2301;47.354;8.528;2022-12-26T00:55:56;12.50;95.70
4578;DHT22;2301;47.354;8.528;2022-12-26T00:58:23;12.40;95.10
4578;DHT22;2301;47.354;8.528;2022-12-26T01:00:50;12.30;94.50
4578;DHT22;2301;47.354;8.528;2022-12-26T01:03:19;12.20;95.00
4578;DHT22;2301;47.354;8.528;2022-12-26T01:05:48;12.30;96.10
4578;DHT22;2301;47.354;8.528;2022-12-26T01:08:16;12.50;96.60
4578;DHT22;2301;47.354;8.528;2022-12-26T01:10:44;12.70;96.50
4578;DHT22;2301;47.354;8.528;2022-12-26T01:13:11;12.90;96.30
4578;DHT22;2301;47.354;8.528;2022-12-26T01:15:38;13.10;96.20
4578;DHT22;2301;47.354;8.528;2022-12-26T01:18:05;13.00;94.30
4578;DHT22;2301;47.354;8.528;2022-12-26T01:20:34;13.00;93.80
4578;DHT22;2301;47.354;8.528;2022-12-26T01:23:01;13.00;93.80
4578;DHT22;2301;47.354;8.528;2022-12-26T01:25:27;13.10;94.80
4578;DHT22;2301;47.354;8.528;2022-12-26T01:27:54;13.20;94.50
4578;DHT22;2301;47.354;8.528;2022-12-26T01:30:21;13.20;94.00
4578;DHT22;2301;47.354;8.528;2022-12-26T01:32:48;13.30;93.90
4578;DHT22;2301;47.354;8.528;2022-12-26T01:35:15;13.40;94.60
4578;DHT22;2301;47.354;8.528;2022-12-26T01:37:44;13.40;93.40
4578;DHT22;2301;47.354;8.528;2022-12-26T01:40:11;13.50;93.90
4578;DHT22;2301;47.354;8.528;2022-12-26T01:42:40;13.50;93.90
4578;DHT22;2301;47.354;8.528;2022-12-26T01:45:20;13.60;94.10
4578;DHT22;2301;47.354;8.528;2022-12-26T01:47:51;13.70;94.30
4578;DHT22;2301;47.354;8.528;2022-12-26T01:50:28;13.80;94.40
4578;DHT22;2301;47.354;8.528;2022-12-26T01:53:00;13.90;93.90
4578;DHT22;2301;47.354;8.528;2022-12-26T01:55:29;13.90;93.60
4578;DHT22;2301;47.354;8.528;2022-12-26T01:57:59;14.00;93.70
4578;DHT22;2301;47.354;8.528;2022-12-26T02:00:27;14.10;93.60
4578;DHT22;2301;47.354;8.528;2022-12-26T02:02:54;14.00;92.40
4578;DHT22;2301;47.354;8.528;2022-12-26T02:05:41;13.80;91.80
4578;DHT22;2301;47.354;8.528;2022-12-26T02:08:12;13.80;93.00
4578;DHT22;2301;47.354;8.528;2022-12-26T02:10:45;13.80;92.60
4578;DHT22;2301;47.354;8.528;2022-12-26T02:13:14;13.90;92.90
4578;DHT22;2301;47.354;8.528;2022-12-26T02:15:41;13.80;91.20
4578;DHT22;2301;47.354;8.528;2022-12-26T02:18:08;13.70;92.00
4578;DHT22;2301;47.354;8.528;2022-12-26T02:20:40;13.70;92.70
4578;DHT22;2301;47.354;8.528;2022-12-26T02:27:01;13.70;91.10
4578;DHT22;2301;47.354;8.528;2022-12-26T02:32:55;13.60;92.20
4578;DHT22;2301;47.354;8.528;2022-12-26T02:35:35;13.60;92.30
4578;DHT22;2301;47.354;8.528;2022-12-26T02:38:15;13.60;92.60
4578;DHT22;2301;47.354;8.528;2022-12-26T02:40:52;13.70;93.20
4578;DHT22;2301;47.354;8.528;2022-12-26T02:43:31;13.70;92.50
4578;DHT22;2301;47.354;8.528;2022-12-26T02:46:10;13.60;92.40
4578;DHT22;2301;47.354;8.528;2022-12-26T02:49:15;13.70;92.80
4578;DHT22;2301;47.354;8.528;2022-12-26T02:51:54;13.70;92.50
4578;DHT22;2301;47.354;8.528;2022-12-26T02:54:44;13.70;92.80
4578;DHT22;2301;47.354;8.528;2022-12-26T02:57:34;13.80;92.90
4578;DHT22;2301;47.354;8.528;2022-12-26T03:00:20;13.90;93.20
4578;DHT22;2301;47.354;8.528;2022-12-26T03:03:09;14.00;93.00
4578;DHT22;2301;47.354;8.528;2022-12-26T03:05:57;13.90;92.80
4578;DHT22;2301;47.354;8.528;2022-12-26T03:08:47;14.00;92.60
4578;DHT22;2301;47.354;8.528;2022-12-26T03:11:35;14.00;92.80
4578;DHT22;2301;47.354;8.528;2022-12-26T03:14:24;14.10;92.80
4578;DHT22;2301;47.354;8.528;2022-12-26T03:16:57;14.00;92.00
4578;DHT22;2301;47.354;8.528;2022-12-26T03:19:45;14.00;92.20
4578;DHT22;2301;47.354;8.528;2022-12-26T03:22:32;13.90;92.00
4578;DHT22;2301;47.354;8.528;2022-12-26T03:25:04;13.90;92.20
4578;DHT22;2301;47.354;8.528;2022-12-26T03:27:48;13.90;92.30
4578;DHT22;2301;47.354;8.528;2022-12-26T03:30:16;13.80;92.00
4578;DHT22;2301;47.354;8.528;2022-12-26T03:33:00;13.80;91.50
4578;DHT22;2301;47.354;8.528;2022-12-26T03:35:32;13.70;91.70
4578;DHT22;2301;47.354;8.528;2022-12-26T03:38:04;13.70;91.90
4578;DHT22;2301;47.354;8.528;2022-12-26T03:40:46;13.80;92.50
4578;DHT22;2301;47.354;8.528;2022-12-26T03:43:45;13.70;91.60
4578;DHT22;2301;47.354;8.528;2022-12-26T03:46:38;13.50;91.30
4578;DHT22;2301;47.354;8.528;2022-12-26T03:49:28;13.60;92.30
4578;DHT22;2301;47.354;8.528;2022-12-26T03:52:18;13.50;91.70
4578;DHT22;2301;47.354;8.528;2022-12-26T03:55:09;13.30;91.60
4578;DHT22;2301;47.354;8.528;2022-12-26T03:58:01;13.30;92.50
4578;DHT22;2301;47.354;8.528;2022-12-26T04:01:07;13.40;92.70
4578;DHT22;2301;47.354;8.528;2022-12-26T04:03:54;13.40;92.60
4578;DHT22;2301;47.354;8.528;2022-12-26T04:06:44;13.40;92.70
4578;DHT22;2301;47.354;8.528;2022-12-26T04:09:35;13.40;92.60
4578;DHT22;2301;47.354;8.528;2022-12-26T04:12:24;13.40;92.80
4578;DHT22;2301;47.354;8.528;2022-12-26T04:15:17;13.50;93.10
4578;DHT22;2301;47.354;8.528;2022-12-26T04:18:08;13.50;93.10
4578;DHT22;2301;47.354;8.528;2022-12-26T04:21:07;13.60;93.40
4578;DHT22;2301;47.354;8.528;2022-12-26T04:24:01;13.60;92.60
4578;DHT22;2301;47.354;8.528;2022-12-26T04:26:48;13.60;92.50
4578;DHT22;2301;47.354;8.528;2022-12-26T04:29:35;13.70;93.20
4578;DHT22;2301;47.354;8.528;2022-12-26T04:32:24;13.70;92.60
4578;DHT22;2301;47.354;8.528;2022-12-26T04:35:14;13.70;92.40
4578;DHT22;2301;47.354;8.528;2022-12-26T04:38:02;13.70;92.00
4578;DHT22;2301;47.354;8.528;2022-12-26T04:40:49;13.80;92.70
4578;DHT22;2301;47.354;8.528;2022-12-26T04:43:35;13.80;92.30
4578;DHT22;2301;47.354;8.528;2022-12-26T04:46:22;13.80;92.10
4578;DHT22;2301;47.354;8.528;2022-12-26T04:48:51;13.80;91.70
4578;DHT22;2301;47.354;8.528;2022-12-26T04:51:36;13.80;91.60
4578;DHT22;2301;47.354;8.528;2022-12-26T04:54:04;13.70;91.20
4578;DHT22;2301;47.354;8.528;2022-12-26T04:56:31;13.70;91.70
4578;DHT22;2301;47.354;8.528;2022-12-26T04:58:58;13.70;91.80
4578;DHT22;2301;47.354;8.528;2022-12-26T05:01:26;13.70;91.90
4578;DHT22;2301;47.354;8.528;2022-12-26T05:04:12;13.70;91.90
4578;DHT22;2301;47.354;8.528;2022-12-26T05:06:57;13.70;91.50
4578;DHT22;2301;47.354;8.528;2022-12-26T05:09:42;13.80;92.30
4578;DHT22;2301;47.354;8.528;2022-12-26T05:12:09;13.70;91.60
4578;DHT22;2301;47.354;8.528;2022-12-26T05:14:36;13.80;91.90
4578;DHT22;2301;47.354;8.528;2022-12-26T05:17:06;13.70;91.10
4578;DHT22;2301;47.354;8.528;2022-12-26T05:19:51;13.80;91.80
4578;DHT22;2301;47.354;8.528;2022-12-26T05:22:38;13.70;91.90
4578;DHT22;2301;47.354;8.528;2022-12-26T05:25:25;13.70;91.60
4578;DHT22;2301;47.354;8.528;2022-12-26T05:28:10;13.80;91.40
4578;DHT22;2301;47.354;8.528;2022-12-26T05:30:55;13.70;91.30
4578;DHT22;2301;47.354;8.528;2022-12-26T05:33:24;13.70;91.80
4578;DHT22;2301;47.354;8.528;2022-12-26T05:36:09;13.80;92.00
4578;DHT22;2301;47.354;8.528;2022-12-26T05:38:36;13.90;91.80
4578;DHT22;2301;47.354;8.528;2022-12-26T05:41:03;13.90;91.70
4578;DHT22;2301;47.354;8.528;2022-12-26T05:43:30;13.90;91.90
4578;DHT22;2301;47.354;8.528;2022-12-26T05:45:58;13.90;91.20
4578;DHT22;2301;47.354;8.528;2022-12-26T05:48:26;14.00;92.00
4578;DHT22;2301;47.354;8.528;2022-12-26T05:50:57;14.00;91.40
4578;DHT22;2301;47.354;8.528;2022-12-26T05:53:24;14.00;91.10
4578;DHT22;2301;47.354;8.528;2022-12-26T05:55:51;14.00;90.80
4578;DHT22;2301;47.354;8.528;2022-12-26T05:58:18;14.00;91.00
4578;DHT22;2301;47.354;8.528;2022-12-26T06:00:45;14.00;90.80
4578;DHT22;2301;47.354;8.528;2022-12-26T06:03:12;14.10;90.90
4578;DHT22;2301;47.354;8.528;2022-12-26T06:05:40;14.10;91.00
4578;DHT22;2301;47.354;8.528;2022-12-26T06:08:07;14.10;90.70
4578;DHT22;2301;47.354;8.528;2022-12-26T06:10:34;14.00;90.00
4578;DHT22;2301;47.354;8.528;2022-12-26T06:13:01;14.10;90.50
4578;DHT22;2301;47.354;8.528;2022-12-26T06:15:28;14.00;90.30
4578;DHT22;2301;47.354;8.528;2022-12-26T06:17:55;14.10;90.10
4578;DHT22;2301;47.354;8.528;2022-12-26T06:20:22;14.00;88.70
4578;DHT22;2301;47.354;8.528;2022-12-26T06:22:50;14.00;88.60
4578;DHT22;2301;47.354;8.528;2022-12-26T06:25:17;13.80;86.50
4578;DHT22;2301;47.354;8.528;2022-12-26T06:27:44;13.70;86.50
4578;DHT22;2301;47.354;8.528;2022-12-26T06:30:11;13.60;86.80
4578;DHT22;2301;47.354;8.528;2022-12-26T06:32:38;13.40;86.80
4578;DHT22;2301;47.354;8.528;2022-12-26T06:35:06;13.30;86.90
4578;DHT22;2301;47.354;8.528;2022-12-26T06:37:33;13.20;87.10
4578;DHT22;2301;47.354;8.528;2022-12-26T06:40:01;13.10;87.40
4578;DHT22;2301;47.354;8.528;2022-12-26T06:42:28;13.10;87.70
4578;DHT22;2301;47.354;8.528;2022-12-26T06:44:55;13.10;88.00
4578;DHT22;2301;47.354;8.528;2022-12-26T06:47:22;13.00;87.80
4578;DHT22;2301;47.354;8.528;2022-12-26T06:49:49;12.90;88.00
4578;DHT22;2301;47.354;8.528;2022-12-26T06:52:16;12.80;88.00
4578;DHT22;2301;47.354;8.528;2022-12-26T06:54:43;12.80;88.00
4578;DHT22;2301;47.354;8.528;2022-12-26T06:57:11;12.80;88.50
4578;DHT22;2301;47.354;8.528;2022-12-26T06:59:38;12.70;88.10
4578;DHT22;2301;47.354;8.528;2022-12-26T07:02:05;12.60;88.10
4578;DHT22;2301;47.354;8.528;2022-12-26T07:04:32;12.50;87.90
4578;DHT22;2301;47.354;8.528;2022-12-26T07:06:59;12.50;88.20
4578;DHT22;2301;47.354;8.528;2022-12-26T07:09:25;12.40;87.60
4578;DHT22;2301;47.354;8.528;2022-12-26T07:11:52;12.20;87.30
4578;DHT22;2301;47.354;8.528;2022-12-26T07:14:22;12.10;87.50
4578;DHT22;2301;47.354;8.528;2022-12-26T07:16:49;11.80;87.30
4578;DHT22;2301;47.354;8.528;2022-12-26T07:19:15;11.60;88.00
4578;DHT22;2301;47.354;8.528;2022-12-26T07:21:43;11.50;88.50
4578;DHT22;2301;47.354;8.528;2022-12-26T07:24:14;11.40;89.50
4578;DHT22;2301;47.354;8.528;2022-12-26T07:26:41;11.40;90.20
4578;DHT22;2301;47.354;8.528;2022-12-26T07:29:08;11.50;90.40
4578;DHT22;2301;47.354;8.528;2022-12-26T07:31:37;11.60;90.50
4578;DHT22;2301;47.354;8.528;2022-12-26T07:34:04;11.60;90.60
4578;DHT22;2301;47.354;8.528;2022-12-26T07:36:31;11.70;90.60
4578;DHT22;2301;47.354;8.528;2022-12-26T07:38:58;11.80;90.60
4578;DHT22;2301;47.354;8.528;2022-12-26T07:41:25;11.80;90.60
4578;DHT22;2301;47.354;8.528;2022-12-26T07:44:09;11.90;90.60
4578;DHT22;2301;47.354;8.528;2022-12-26T07:46:38;11.90;90.70
4578;DHT22;2301;47.354;8.528;2022-12-26T07:49:05;12.00;90.70
4578;DHT22;2301;47.354;8.528;2022-12-26T07:51:32;12.00;90.70
4578;DHT22;2301;47.354;8.528;2022-12-26T07:53:59;12.10;90.80
4578;DHT22;2301;47.354;8.528;2022-12-26T07:56:26;12.10;90.70
4578;DHT22;2301;47.354;8.528;2022-12-26T07:58:52;12.10;90.60
4578;DHT22;2301;47.354;8.528;2022-12-26T08:01:19;12.10;90.50
4578;DHT22;2301;47.354;8.528;2022-12-26T08:03:48;12.20;90.60
4578;DHT22;2301;47.354;8.528;2022-12-26T08:06:16;12.20;90.60
4578;DHT22;2301;47.354;8.528;2022-12-26T08:08:44;12.20;90.60
4578;DHT22;2301;47.354;8.528;2022-12-26T08:11:14;12.20;90.60
4578;DHT22;2301;47.354;8.528;2022-12-26T08:13:41;12.20;90.70
4578;DHT22;2301;47.354;8.528;2022-12-26T08:16:10;12.30;90.60
4578;DHT22;2301;47.354;8.528;2022-12-26T08:18:37;12.30;90.60
4578;DHT22;2301;47.354;8.528;2022-12-26T08:21:06;12.40;90.60
4578;DHT22;2301;47.354;8.528;2022-12-26T08:23:33;12.30;90.50
4578;DHT22;2301;47.354;8.528;2022-12-26T08:26:03;12.40;90.60
4578;DHT22;2301;47.354;8.528;2022-12-26T08:28:31;12.40;90.60
4578;DHT22;2301;47.354;8.528;2022-12-26T08:30:58;12.40;90.40
4578;DHT22;2301;47.354;8.528;2022-12-26T08:33:25;12.40;90.30
4578;DHT22;2301;47.354;8.528;2022-12-26T08:35:52;12.50;90.40
4578;DHT22;2301;47.354;8.528;2022-12-26T08:38:20;12.50;90.40
4578;DHT22;2301;47.354;8.528;2022-12-26T08:40:53;12.60;90.20
4578;DHT22;2301;47.354;8.528;2022-12-26T08:43:21;12.60;90.10
4578;DHT22;2301;47.354;8.528;2022-12-26T08:45:56;12.60;90.10
4578;DHT22;2301;47.354;8.528;2022-12-26T08:48:23;12.70;90.10
4578;DHT22;2301;47.354;8.528;2022-12-26T08:50:55;12.70;90.00
4578;DHT22;2301;47.354;8.528;2022-12-26T08:53:24;12.80;90.00
4578;DHT22;2301;47.354;8.528;2022-12-26T08:55:51;12.80;89.70
4578;DHT22;2301;47.354;8.528;2022-12-26T08:58:19;12.90;89.80
4578;DHT22;2301;47.354;8.528;2022-12-26T09:00:46;12.90;90.00
4578;DHT22;2301;47.354;8.528;2022-12-26T09:03:13;12.90;89.70
4578;DHT22;2301;47.354;8.528;2022-12-26T09:05:40;12.90;89.60
4578;DHT22;2301;47.354;8.528;2022-12-26T09:08:07;13.00;89.40
4578;DHT22;2301;47.354;8.528;2022-12-26T09:10:36;13.10;89.20
4578;DHT22;2301;47.354;8.528;2022-12-26T09:13:03;13.10;89.20
4578;DHT22;2301;47.354;8.528;2022-12-26T09:15:30;13.10;88.90
4578;DHT22;2301;47.354;8.528;2022-12-26T09:17:57;13.10;88.50
4578;DHT22;2301;47.354;8.528;2022-12-26T09:20:24;13.20;88.50
4578;DHT22;2301;47.354;8.528;2022-12-26T09:22:51;13.20;88.00
4578;DHT22;2301;47.354;8.528;2022-12-26T09:25:20;13.20;87.80
4578;DHT22;2301;47.354;8.528;2022-12-26T09:27:49;13.20;88.00
4578;DHT22;2301;47.354;8.528;2022-12-26T09:30:18;13.20;88.00
4578;DHT22;2301;47.354;8.528;2022-12-26T09:32:46;13.20;87.70
4578;DHT22;2301;47.354;8.528;2022-12-26T09:35:13;13.20;87.80
4578;DHT22;2301;47.354;8.528;2022-12-26T09:37:40;13.20;87.90
4578;DHT22;2301;47.354;8.528;2022-12-26T09:40:21;13.20;87.70
4578;DHT22;2301;47.354;8.528;2022-12-26T09:42:57;13.20;87.60
4578;DHT22;2301;47.354;8.528;2022-12-26T09:45:36;13.10;87.10
4578;DHT22;2301;47.354;8.528;2022-12-26T09:48:13;13.20;87.70
4578;DHT22;2301;47.354;8.528;2022-12-26T09:50:44;13.20;88.00
4578;DHT22;2301;47.354;8.528;2022-12-26T09:53:17;13.20;87.60
4578;DHT22;2301;47.354;8.528;2022-12-26T09:55:49;13.20;87.80
4578;DHT22;2301;47.354;8.528;2022-12-26T09:58:24;13.20;88.10
4578;DHT22;2301;47.354;8.528;2022-12-26T10:00:57;13.20;88.20
4578;DHT22;2301;47.354;8.528;2022-12-26T10:03:26;13.20;88.30
4578;DHT22;2301;47.354;8.528;2022-12-26T10:06:20;13.20;88.10
4578;DHT22;2301;47.354;8.528;2022-12-26T10:11:53;13.20;88.50
4578;DHT22;2301;47.354;8.528;2022-12-26T10:14:34;13.20;88.80
4578;DHT22;2301;47.354;8.528;2022-12-26T10:17:10;13.10;88.70
4578;DHT22;2301;47.354;8.528;2022-12-26T10:19:49;13.10;88.90
4578;DHT22;2301;47.354;8.528;2022-12-26T10:22:36;13.10;89.10
4578;DHT22;2301;47.354;8.528;2022-12-26T10:25:14;13.10;89.30
4578;DHT22;2301;47.354;8.528;2022-12-26T10:27:44;13.00;89.60
4578;DHT22;2301;47.354;8.528;2022-12-26T10:30:19;13.10;89.90
4578;DHT22;2301;47.354;8.528;2022-12-26T10:32:50;13.00;90.00
4578;DHT22;2301;47.354;8.528;2022-12-26T10:35:22;13.00;90.10
4578;DHT22;2301;47.354;8.528;2022-12-26T10:37:54;13.00;90.20
4578;DHT22;2301;47.354;8.528;2022-12-26T10:40:26;13.00;90.30
4578;DHT22;2301;47.354;8.528;2022-12-26T10:42:54;13.00;90.30
4578;DHT22;2301;47.354;8.528;2022-12-26T10:45:28;13.00;90.40
4578;DHT22;2301;47.354;8.528;2022-12-26T10:47:58;13.00;90.60
4578;DHT22;2301;47.354;8.528;2022-12-26T10:50:27;12.90;90.60
4578;DHT22;2301;47.354;8.528;2022-12-26T10:52:55;12.90;90.60
4578;DHT22;2301;47.354;8.528;2022-12-26T10:55:26;13.00;90.60
4578;DHT22;2301;47.354;8.528;2022-12-26T10:57:54;12.90;90.70
4578;DHT22;2301;47.354;8.528;2022-12-26T11:00:27;13.00;90.90
4578;DHT22;2301;47.354;8.528;2022-12-26T11:03:05;12.90;91.00
4578;DHT22;2301;47.354;8.528;2022-12-26T11:05:33;12.90;91.20
4578;DHT22;2301;47.354;8.528;2022-12-26T11:08:15;12.90;91.30
4578;DHT22;2301;47.354;8.528;2022-12-26T11:10:46;12.90;91.60
4578;DHT22;2301;47.354;8.528;2022-12-26T11:13:19;12.90;91.70
4578;DHT22;2301;47.354;8.528;2022-12-26T11:15:50;12.90;91.90
4578;DHT22;2301;47.354;8.528;2022-12-26T11:18:21;12.90;92.00
4578;DHT22;2301;47.354;8.528;2022-12-26T11:20:49;12.90;92.00
4578;DHT22;2301;47.354;8.528;2022-12-26T11:23:29;12.90;92.20
4578;DHT22;2301;47.354;8.528;2022-12-26T11:26:00;12.90;92.30
4578;DHT22;2301;47.354;8.528;2022-12-26T11:28:30;12.80;92.50
4578;DHT22;2301;47.354;8.528;2022-12-26T11:30:59;12.80;92.60
4578;DHT22;2301;47.354;8.528;2022-12-26T11:33:29;12.70;92.90
4578;DHT22;2301;47.354;8.528;2022-12-26T11:36:04;12.70;93.20
4578;DHT22;2301;47.354;8.528;2022-12-26T11:38:33;12.60;93.50
4578;DHT22;2301;47.354;8.528;2022-12-26T11:41:11;12.60;93.70
4578;DHT22;2301;47.354;8.528;2022-12-26T11:43:58;12.60;93.90
4578;DHT22;2301;47.354;8.528;2022-12-26T11:46:35;12.60;93.90
4578;DHT22;2301;47.354;8.528;2022-12-26T11:49:04;12.60;94.10
4578;DHT22;2301;47.354;8.528;2022-12-26T11:51:38;12.50;94.30
4578;DHT22;2301;47.354;8.528;2022-12-26T11:54:20;12.50;94.40
4578;DHT22;2301;47.354;8.528;2022-12-26T11:56:58;12.40;94.60
4578;DHT22;2301;47.354;8.528;2022-12-26T11:59:26;12.50;94.80
4578;DHT22;2301;47.354;8.528;2022-12-26T12:02:13;12.50;95.00
4578;DHT22;2301;47.354;8.528;2022-12-26T12:04:41;12.50;95.20
4578;DHT22;2301;47.354;8.528;2022-12-26T12:07:16;12.40;95.20
4578;DHT22;2301;47.354;8.528;2022-12-26T12:09:51;12.50;95.40
4578;DHT22;2301;47.354;8.528;2022-12-26T12:12:27;12.40;95.30
4578;DHT22;2301;47.354;8.528;2022-12-26T12:15:05;12.40;95.40
4578;DHT22;2301;47.354;8.528;2022-12-26T12:17:44;12.40;95.40
4578;DHT22;2301;47.354;8.528;2022-12-26T12:20:26;12.40;95.40
4578;DHT22;2301;47.354;8.528;2022-12-26T12:26:05;12.40;95.50
4578;DHT22;2301;47.354;8.528;2022-12-26T12:31:38;12.40;95.80
4578;DHT22;2301;47.354;8.528;2022-12-26T12:34:20;12.40;95.90
4578;DHT22;2301;47.354;8.528;2022-12-26T12:36:57;12.40;96.00
4578;DHT22;2301;47.354;8.528;2022-12-26T12:39:37;12.40;96.10
4578;DHT22;2301;47.354;8.528;2022-12-26T12:42:20;12.40;96.30
4578;DHT22;2301;47.354;8.528;2022-12-26T12:45:15;12.40;96.40
4578;DHT22;2301;47.354;8.528;2022-12-26T12:47:50;12.40;96.40
4578;DHT22;2301;47.354;8.528;2022-12-26T12:50:27;12.40;96.60
4578;DHT22;2301;47.354;8.528;2022-12-26T12:53:03;12.40;96.60
4578;DHT22;2301;47.354;8.528;2022-12-26T12:55:45;12.40;96.70
4578;DHT22;2301;47.354;8.528;2022-12-26T12:58:21;12.50;96.90
4578;DHT22;2301;47.354;8.528;2022-12-26T13:00:54;12.40;96.90
4578;DHT22;2301;47.354;8.528;2022-12-26T13:03:28;12.40;96.80
4578;DHT22;2301;47.354;8.528;2022-12-26T13:06:05;12.40;96.90
4578;DHT22;2301;47.354;8.528;2022-12-26T13:08:37;12.40;96.80
4578;DHT22;2301;47.354;8.528;2022-12-26T13:11:08;12.50;96.90
4578;DHT22;2301;47.354;8.528;2022-12-26T13:13:39;12.50;96.90
4578;DHT22;2301;47.354;8.528;2022-12-26T13:16:11;12.50;96.90
4578;DHT22;2301;47.354;8.528;2022-12-26T13:18:43;12.40;96.90
4578;DHT22;2301;47.354;8.528;2022-12-26T13:21:13;12.40;96.80
4578;DHT22;2301;47.354;8.528;2022-12-26T13:23:43;12.50;96.90
4578;DHT22;2301;47.354;8.528;2022-12-26T13:26:33;12.50;97.00
4578;DHT22;2301;47.354;8.528;2022-12-26T13:29:05;12.50;97.00
4578;DHT22;2301;47.354;8.528;2022-12-26T13:31:35;12.50;97.10
4578;DHT22;2301;47.354;8.528;2022-12-26T13:34:03;12.50;97.40
4578;DHT22;2301;47.354;8.528;2022-12-26T13:36:40;12.50;97.20
4578;DHT22;2301;47.354;8.528;2022-12-26T13:39:33;12.50;97.00
4578;DHT22;2301;47.354;8.528;2022-12-26T13:42:04;12.50;96.90
4578;DHT22;2301;47.354;8.528;2022-12-26T13:48:54;12.50;96.90
4578;DHT22;2301;47.354;8.528;2022-12-26T13:51:47;12.50;96.90
4578;DHT22;2301;47.354;8.528;2022-12-26T13:54:15;12.40;96.80
4578;DHT22;2301;47.354;8.528;2022-12-26T13:57:10;12.40;96.80
4578;DHT22;2301;47.354;8.528;2022-12-26T13:59:45;12.40;96.80
4578;DHT22;2301;47.354;8.528;2022-12-26T14:02:39;12.40;96.90
4578;DHT22;2301;47.354;8.528;2022-12-26T14:05:16;12.40;96.90
4578;DHT22;2301;47.354;8.528;2022-12-26T14:07:52;12.40;97.00
4578;DHT22;2301;47.354;8.528;2022-12-26T14:10:28;12.30;96.90
4578;DHT22;2301;47.354;8.528;2022-12-26T14:13:06;12.40;97.10
4578;DHT22;2301;47.354;8.528;2022-12-26T14:15:49;12.30;97.10
4578;DHT22;2301;47.354;8.528;2022-12-26T14:18:34;12.30;97.10
4578;DHT22;2301;47.354;8.528;2022-12-26T14:21:19;12.30;97.10
4578;DHT22;2301;47.354;8.528;2022-12-26T14:23:58;12.30;97.20
4578;DHT22;2301;47.354;8.528;2022-12-26T14:26:36;12.20;97.20
4578;DHT22;2301;47.354;8.528;2022-12-26T14:29:14;12.20;97.10
4578;DHT22;2301;47.354;8.528;2022-12-26T14:31:51;12.10;96.90
4578;DHT22;2301;47.354;8.528;2022-12-26T14:34:29;12.10;96.90
4578;DHT22;2301;47.354;8.528;2022-12-26T14:37:08;12.00;96.90
4578;DHT22;2301;47.354;8.528;2022-12-26T14:39:54;12.00;97.00
4578;DHT22;2301;47.354;8.528;2022-12-26T14:42:24;12.00;97.10
4578;DHT22;2301;47.354;8.528;2022-12-26T14:45:37;12.00;97.10
4578;DHT22;2301;47.354;8.528;2022-12-26T14:48:39;12.00;97.10
4578;DHT22;2301;47.354;8.528;2022-12-26T14:54:49;12.00;97.20
4578;DHT22;2301;47.354;8.528;2022-12-26T15:00:28;11.90;97.40
4578;DHT22;2301;47.354;8.528;2022-12-26T15:03:36;11.90;97.50
4578;DHT22;2301;47.354;8.528;2022-12-26T15:12:55;11.90;97.70
4578;DHT22;2301;47.354;8.528;2022-12-26T15:15:32;11.80;97.70
4578;DHT22;2301;47.354;8.528;2022-12-26T15:18:20;11.90;97.80
4578;DHT22;2301;47.354;8.528;2022-12-26T15:21:06;11.80;97.90
4578;DHT22;2301;47.354;8.528;2022-12-26T15:26:49;11.70;97.80
4578;DHT22;2301;47.354;8.528;2022-12-26T15:29:48;11.70;97.20
4578;DHT22;2301;47.354;8.528;2022-12-26T15:32:22;11.70;97.10
4578;DHT22;2301;47.354;8.528;2022-12-26T15:34:56;11.70;96.80
4578;DHT22;2301;47.354;8.528;2022-12-26T15:40:22;11.80;96.10
4578;DHT22;2301;47.354;8.528;2022-12-26T15:43:05;11.80;96.20
4578;DHT22;2301;47.354;8.528;2022-12-26T15:45:44;11.80;96.40
4578;DHT22;2301;47.354;8.528;2022-12-26T15:48:24;11.80;96.40
4578;DHT22;2301;47.354;8.528;2022-12-26T15:50:57;11.80;96.10
4578;DHT22;2301;47.354;8.528;2022-12-26T15:53:37;11.80;95.80
4578;DHT22;2301;47.354;8.528;2022-12-26T15:56:24;11.80;96.00
4578;DHT22;2301;47.354;8.528;2022-12-26T15:59:10;11.80;95.90
4578;DHT22;2301;47.354;8.528;2022-12-26T16:01:44;11.80;95.30
4578;DHT22;2301;47.354;8.528;2022-12-26T16:04:19;11.80;95.10
4578;DHT22;2301;47.354;8.528;2022-12-26T16:07:05;11.80;93.90
4578;DHT22;2301;47.354;8.528;2022-12-26T16:09:44;11.90;94.10
4578;DHT22;2301;47.354;8.528;2022-12-26T16:12:20;11.90;94.10
4578;DHT22;2301;47.354;8.528;2022-12-26T16:14:48;11.90;94.00
4578;DHT22;2301;47.354;8.528;2022-12-26T16:17:20;11.80;94.00
4578;DHT22;2301;47.354;8.528;2022-12-26T16:19:49;11.80;94.20
4578;DHT22;2301;47.354;8.528;2022-12-26T16:22:24;11.80;94.30
4578;DHT22;2301;47.354;8.528;2022-12-26T16:25:14;11.90;94.40
4578;DHT22;2301;47.354;8.528;2022-12-26T16:27:43;11.80;94.50
4578;DHT22;2301;47.354;8.528;2022-12-26T16:30:14;11.80;94.20
4578;DHT22;2301;47.354;8.528;2022-12-26T16:32:43;11.80;94.40
4578;DHT22;2301;47.354;8.528;2022-12-26T16:35:17;11.80;94.40
4578;DHT22;2301;47.354;8.528;2022-12-26T16:37:46;11.80;94.30
4578;DHT22;2301;47.354;8.528;2022-12-26T16:40:23;11.80;94.20
4578;DHT22;2301;47.354;8.528;2022-12-26T16:42:56;11.90;94.30
4578;DHT22;2301;47.354;8.528;2022-12-26T16:45:24;11.80;94.30
4578;DHT22;2301;47.354;8.528;2022-12-26T16:47:53;11.90;94.40
4578;DHT22;2301;47.354;8.528;2022-12-26T16:50:23;11.80;94.40
4578;DHT22;2301;47.354;8.528;2022-12-26T16:53:00;11.90;94.50
4578;DHT22;2301;47.354;8.528;2022-12-26T16:55:35;11.80;94.40
4578;DHT22;2301;47.354;8.528;2022-12-26T16:58:10;11.80;94.40
4578;DHT22;2301;47.354;8.528;2022-12-26T17:00:38;11.80;94.50
4578;DHT22;2301;47.354;8.528;2022-12-26T17:03:09;11.80;94.50
4578;DHT22;2301;47.354;8.528;2022-12-26T17:05:45;11.90;94.60
4578;DHT22;2301;47.354;8.528;2022-12-26T17:08:14;11.80;94.50
4578;DHT22;2301;47.354;8.528;2022-12-26T17:10:46;11.80;94.30
4578;DHT22;2301;47.354;8.528;2022-12-26T17:13:17;11.80;94.40
4578;DHT22;2301;47.354;8.528;2022-12-26T17:15:49;11.80;94.50
4578;DHT22;2301;47.354;8.528;2022-12-26T17:21:24;11.80;94.40
4578;DHT22;2301;47.354;8.528;2022-12-26T17:24:10;11.80;94.50
4578;DHT22;2301;47.354;8.528;2022-12-26T17:26:40;11.80;94.50
4578;DHT22;2301;47.354;8.528;2022-12-26T17:29:44;11.80;94.50
4578;DHT22;2301;47.354;8.528;2022-12-26T17:32:13;11.80;94.50